createdAt,value
2023-04-13T00:00:46.773Z,11.10
2023-04-13T00:03:18.182Z,11.10
2023-04-13T00:05:46.788Z,11.00
2023-04-13T00:08:14.369Z,11.00
2023-04-13T00:10:41.868Z,11.00
2023-04-13T00:13:11.069Z,10.90
2023-04-13T00:15:43.348Z,10.90
2023-04-13T00:18:11.652Z,10.80
2023-04-13T00:20:41.941Z,10.80
2023-04-13T00:23:10.162Z,10.80
2023-04-13T00:25:37.383Z,10.70
2023-04-13T00:28:06.404Z,10.70
2023-04-13T00:30:33.938Z,10.70
2023-04-13T00:33:03.898Z,10.60
2023-04-13T00:35:31.296Z,10.60
2023-04-13T00:37:59.019Z,10.60
2023-04-13T00:40:28.194Z,10.60
2023-04-13T00:42:56.199Z,10.60
2023-04-13T00:45:23.454Z,10.60
2023-04-13T00:47:51.991Z,10.60
2023-04-13T00:50:21.263Z,10.50
2023-04-13T00:52:49.669Z,10.50
2023-04-13T00:55:21.568Z,10.50
2023-04-13T00:57:53.097Z,10.50
2023-04-13T01:00:21.326Z,10.50
2023-04-13T01:02:50.640Z,10.50
2023-04-13T01:05:18.759Z,10.40
2023-04-13T01:08:09.304Z,10.40
2023-04-13T01:10:54.294Z,10.40
2023-04-13T01:13:32.739Z,10.40
2023-04-13T01:16:14.745Z,10.30
2023-04-13T01:18:45.336Z,10.40
2023-04-13T01:21:18.177Z,10.40
2023-04-13T01:24:40.633Z,10.30
2023-04-13T01:27:17.830Z,10.30
2023-04-13T01:29:47.005Z,10.30
2023-04-13T01:32:16.479Z,10.30
2023-04-13T01:34:45.408Z,10.30
2023-04-13T01:37:14.592Z,10.30
2023-04-13T01:39:41.866Z,10.20
2023-04-13T01:42:09.225Z,10.30
2023-04-13T01:44:36.636Z,10.30
2023-04-13T01:47:16.529Z,10.30
2023-04-13T01:49:57.676Z,10.30
2023-04-13T01:52:28.050Z,10.30
2023-04-13T01:54:56.888Z,10.30
2023-04-13T01:57:26.275Z,10.30
2023-04-13T01:59:53.448Z,10.30
2023-04-13T02:02:20.994Z,10.30
2023-04-13T02:04:48.683Z,10.30
2023-04-13T02:07:16.403Z,10.30
2023-04-13T02:09:43.725Z,10.30
2023-04-13T02:12:11.253Z,10.30
2023-04-13T02:14:38.598Z,10.40
2023-04-13T02:17:05.820Z,10.40
2023-04-13T02:19:33.030Z,10.40
2023-04-13T02:22:00.638Z,10.40
2023-04-13T02:24:27.840Z,10.40
2023-04-13T02:26:56.652Z,10.40
2023-04-13T02:29:24.157Z,10.40
2023-04-13T02:31:51.401Z,10.40
2023-04-13T02:34:18.640Z,10.50
2023-04-13T02:36:46.550Z,10.40
2023-04-13T02:39:13.873Z,10.40
2023-04-13T02:41:43.329Z,10.40
2023-04-13T02:44:11.630Z,10.50
2023-04-13T02:46:39.099Z,10.50
2023-04-13T02:49:06.307Z,10.50
2023-04-13T02:51:33.620Z,10.50
2023-04-13T02:54:03.286Z,10.50
2023-04-13T02:56:31.101Z,10.50
2023-04-13T02:58:59.827Z,10.50
2023-04-13T03:01:27.143Z,10.40
2023-04-13T03:03:54.675Z,10.40
2023-04-13T03:06:24.177Z,10.40
2023-04-13T03:08:51.548Z,10.40
2023-04-13T03:11:20.608Z,10.40
2023-04-13T03:13:48.022Z,10.40
2023-04-13T03:16:15.664Z,10.30
2023-04-13T03:18:42.911Z,10.20
2023-04-13T03:21:10.114Z,10.20
2023-04-13T03:23:37.271Z,10.20
2023-04-13T03:26:04.900Z,10.20
2023-04-13T03:28:32.093Z,10.20
2023-04-13T03:30:59.308Z,10.20
2023-04-13T03:33:29.662Z,10.30
2023-04-13T03:35:57.559Z,10.30
2023-04-13T03:38:24.780Z,10.30
2023-04-13T03:40:51.984Z,10.30
2023-04-13T03:43:19.242Z,10.40
2023-04-13T03:45:46.589Z,10.40
2023-04-13T03:48:14.354Z,10.50
2023-04-13T03:50:41.707Z,10.50
2023-04-13T03:53:08.970Z,10.50
2023-04-13T03:55:37.006Z,10.60
2023-04-13T03:58:05.745Z,10.60
2023-04-13T04:00:33.216Z,10.60
2023-04-13T04:03:00.487Z,10.70
2023-04-13T04:05:28.079Z,10.70
2023-04-13T04:07:55.453Z,10.70
2023-04-13T04:10:22.778Z,10.70
2023-04-13T04:12:50.022Z,10.60
2023-04-13T04:15:17.341Z,10.60
2023-04-13T04:17:44.617Z,10.60
2023-04-13T04:20:12.194Z,10.60
2023-04-13T04:22:39.535Z,10.60
2023-04-13T04:25:07.400Z,10.60
2023-04-13T04:27:40.885Z,10.70
2023-04-13T04:30:10.981Z,10.70
2023-04-13T04:32:38.445Z,10.80
2023-04-13T04:35:06.881Z,10.80
2023-04-13T04:37:37.566Z,10.80
2023-04-13T04:40:09.460Z,10.80
2023-04-13T04:42:39.954Z,10.80
2023-04-13T04:45:08.361Z,10.80
2023-04-13T04:47:42.211Z,10.90
2023-04-13T04:50:14.674Z,10.90
2023-04-13T04:52:42.261Z,10.90
2023-04-13T04:55:10.485Z,10.90
2023-04-13T04:57:37.757Z,11.00
2023-04-13T05:00:17.979Z,11.00
2023-04-13T05:02:46.556Z,11.00
2023-04-13T05:05:14.138Z,11.00
2023-04-13T05:07:41.363Z,11.00
2023-04-13T05:10:10.200Z,11.00
2023-04-13T05:12:37.780Z,11.00
2023-04-13T05:15:06.510Z,11.00
2023-04-13T05:17:34.926Z,11.00
2023-04-13T05:20:06.714Z,10.90
2023-04-13T05:22:34.008Z,10.90
2023-04-13T05:25:01.354Z,10.80
2023-04-13T05:27:28.591Z,10.70
2023-04-13T05:29:57.295Z,10.70
2023-04-13T05:32:24.654Z,10.70
2023-04-13T05:34:51.892Z,10.70
2023-04-13T05:37:19.117Z,10.60
2023-04-13T05:39:46.582Z,10.60
2023-04-13T05:42:15.829Z,10.60
2023-04-13T05:44:43.194Z,10.60
2023-04-13T05:47:10.415Z,10.60
2023-04-13T05:49:37.688Z,10.50
2023-04-13T05:52:07.675Z,10.50
2023-04-13T05:54:35.404Z,10.50
2023-04-13T05:57:02.668Z,10.60
2023-04-13T05:59:29.957Z,10.50
2023-04-13T06:01:57.571Z,10.60
2023-04-13T06:04:25.199Z,10.60
2023-04-13T06:06:52.632Z,10.60
2023-04-13T06:09:19.928Z,10.70
2023-04-13T06:11:47.276Z,10.70
2023-04-13T06:14:15.333Z,10.80
2023-04-13T06:16:43.556Z,10.80
2023-04-13T06:19:12.885Z,10.80
2023-04-13T06:21:40.148Z,10.90
2023-04-13T06:24:07.620Z,10.90
2023-04-13T06:26:35.054Z,11.00
2023-04-13T06:29:02.892Z,11.10
2023-04-13T06:31:30.300Z,11.10
2023-04-13T06:33:57.700Z,11.10
2023-04-13T06:36:26.035Z,11.10
2023-04-13T06:38:53.296Z,11.20
2023-04-13T06:41:20.656Z,11.20
2023-04-13T06:43:48.705Z,11.20
2023-04-13T06:46:19.591Z,11.20
2023-04-13T06:48:47.799Z,11.20
2023-04-13T06:51:16.100Z,11.30
2023-04-13T06:53:43.819Z,11.30
2023-04-13T06:56:11.283Z,11.30
2023-04-13T06:58:38.505Z,11.30
2023-04-13T07:01:06.976Z,11.40
2023-04-13T07:03:34.471Z,11.50
2023-04-13T07:06:01.906Z,11.50
2023-04-13T07:08:29.168Z,11.50
2023-04-13T07:10:57.739Z,11.50
2023-04-13T07:13:27.272Z,11.60
2023-04-13T07:15:54.660Z,11.60
2023-04-13T07:18:21.892Z,11.60
2023-04-13T07:20:49.143Z,11.50
2023-04-13T07:23:16.412Z,11.50
2023-04-13T07:25:44.933Z,11.30
2023-04-13T07:28:12.034Z,11.30
2023-04-13T07:30:44.673Z,11.20
2023-04-13T07:33:12.396Z,11.10
2023-04-13T07:35:40.128Z,11.10
2023-04-13T07:38:07.494Z,11.10
2023-04-13T07:40:35.957Z,11.00
2023-04-13T07:43:03.087Z,11.00
2023-04-13T07:45:31.485Z,11.00
2023-04-13T07:47:58.914Z,10.90
2023-04-13T07:50:26.293Z,10.90
2023-04-13T07:52:53.638Z,10.90
2023-04-13T07:55:21.007Z,10.90
2023-04-13T07:57:48.265Z,11.00
2023-04-13T08:00:17.069Z,11.00
2023-04-13T08:02:44.391Z,11.00
2023-04-13T08:05:12.571Z,11.00
2023-04-13T08:07:39.842Z,11.00
2023-04-13T08:10:08.446Z,11.10
2023-04-13T08:12:35.665Z,11.20
2023-04-13T08:15:03.079Z,11.20
2023-04-13T08:17:30.524Z,11.20
2023-04-13T08:19:57.764Z,11.30
2023-04-13T08:22:25.110Z,11.40
2023-04-13T08:24:53.243Z,11.40
2023-04-13T08:27:20.521Z,11.50
2023-04-13T08:29:47.737Z,11.40
2023-04-13T08:32:15.103Z,11.50
2023-04-13T08:34:42.660Z,11.50
2023-04-13T08:37:11.689Z,11.60
2023-04-13T08:39:39.638Z,11.60
2023-04-13T08:42:08.109Z,11.60
2023-04-13T08:44:40.240Z,11.60
2023-04-13T08:47:07.728Z,11.60
2023-04-13T08:49:37.446Z,11.60
2023-04-13T08:52:09.660Z,11.70
2023-04-13T08:54:37.062Z,11.70
2023-04-13T08:57:05.099Z,11.80
2023-04-13T08:59:33.645Z,11.90
2023-04-13T09:02:04.534Z,11.90
2023-04-13T09:04:37.985Z,11.90
2023-04-13T09:07:07.168Z,12.00
2023-04-13T09:09:38.305Z,12.10
2023-04-13T09:12:06.103Z,12.10
2023-04-13T09:14:33.611Z,12.00
2023-04-13T09:17:00.994Z,12.00
2023-04-13T09:19:33.162Z,11.90
2023-04-13T09:22:12.831Z,12.00
2023-04-13T09:24:42.554Z,12.20
2023-04-13T09:27:24.038Z,12.40
2023-04-13T09:30:12.782Z,12.40
2023-04-13T09:32:40.232Z,12.50
2023-04-13T09:35:08.486Z,12.50
2023-04-13T09:37:37.838Z,12.60
2023-04-13T09:40:29.693Z,12.50
2023-04-13T09:43:12.432Z,12.40
2023-04-13T09:45:46.476Z,12.50
2023-04-13T09:48:23.935Z,12.60
2023-04-13T09:51:11.969Z,12.70
2023-04-13T09:53:47.681Z,12.80
2023-04-13T09:56:16.121Z,12.80
2023-04-13T09:58:45.615Z,12.80
2023-04-13T10:01:17.514Z,12.70
2023-04-13T10:03:45.343Z,12.60
2023-04-13T10:06:12.968Z,12.70
2023-04-13T10:08:43.924Z,12.70
2023-04-13T10:11:15.545Z,12.70
2023-04-13T10:13:51.071Z,12.70
2023-04-13T10:16:43.329Z,12.70
2023-04-13T10:19:15.464Z,12.80
2023-04-13T10:21:50.284Z,12.90
2023-04-13T10:24:20.165Z,13.10
2023-04-13T10:26:47.720Z,13.30
2023-04-13T10:29:16.667Z,13.40
2023-04-13T10:31:52.372Z,13.40
2023-04-13T10:34:28.371Z,13.60
2023-04-13T10:36:58.588Z,13.60
2023-04-13T10:39:36.925Z,13.60
2023-04-13T10:42:09.183Z,13.60
2023-04-13T10:44:47.780Z,13.50
2023-04-13T10:47:17.878Z,13.50
2023-04-13T10:49:46.836Z,13.50
2023-04-13T10:52:15.891Z,13.50
2023-04-13T10:54:44.734Z,13.60
2023-04-13T10:57:13.457Z,13.50
2023-04-13T10:59:56.159Z,13.60
2023-04-13T11:02:32.609Z,13.70
2023-04-13T11:05:01.159Z,13.90
2023-04-13T11:07:29.822Z,14.20
2023-04-13T11:10:03.721Z,14.40
2023-04-13T11:12:31.773Z,14.50
2023-04-13T11:15:00.053Z,14.70
2023-04-13T11:17:27.688Z,14.90
2023-04-13T11:19:58.719Z,15.10
2023-04-13T11:22:28.964Z,15.20
2023-04-13T11:25:09.968Z,15.30
2023-04-13T11:27:38.320Z,15.50
2023-04-13T11:30:09.580Z,15.50
2023-04-13T11:32:43.771Z,15.30
2023-04-13T11:35:14.849Z,15.30
2023-04-13T11:37:47.127Z,15.20
2023-04-13T11:40:20.344Z,15.10
2023-04-13T11:42:53.608Z,15.00
2023-04-13T11:45:25.559Z,14.90
2023-04-13T11:47:55.890Z,14.90
2023-04-13T11:50:24.109Z,14.90
2023-04-13T11:52:56.754Z,14.70
2023-04-13T11:55:25.632Z,14.50
2023-04-13T11:57:54.295Z,14.30
2023-04-13T12:00:28.955Z,14.20
2023-04-13T12:05:32.465Z,13.90
2023-04-13T12:08:02.754Z,14.00
2023-04-13T12:10:41.386Z,14.00
2023-04-13T12:13:31.140Z,14.00
2023-04-13T12:16:09.501Z,14.10
2023-04-13T12:18:48.199Z,14.10
2023-04-13T12:21:20.470Z,13.90
2023-04-13T12:24:05.787Z,13.80
2023-04-13T12:27:09.946Z,13.70
2023-04-13T12:29:28.505Z,13.60
2023-04-13T12:32:04.081Z,13.60
2023-04-13T12:34:31.413Z,13.60
2023-04-13T12:37:01.225Z,13.60
2023-04-13T12:39:28.467Z,13.60
2023-04-13T12:41:57.751Z,13.50
2023-04-13T12:44:25.058Z,13.40
2023-04-13T12:46:52.350Z,13.30
2023-04-13T12:49:21.746Z,13.20
2023-04-13T12:51:50.504Z,13.10
2023-04-13T12:54:18.162Z,12.90
2023-04-13T12:56:45.804Z,12.90
2023-04-13T12:59:13.204Z,12.70
2023-04-13T13:01:41.593Z,12.60
2023-04-13T13:04:10.247Z,12.50
2023-04-13T13:06:38.104Z,12.50
2023-04-13T13:09:07.771Z,12.40
2023-04-13T13:11:37.073Z,12.30
2023-04-13T13:14:04.622Z,12.40
2023-04-13T13:16:32.465Z,12.40
2023-04-13T13:18:59.703Z,12.50
2023-04-13T13:21:32.286Z,12.60
2023-04-13T13:23:59.852Z,12.60
2023-04-13T13:29:34.002Z,12.70
2023-04-13T13:32:14.733Z,12.80
2023-04-13T13:34:48.715Z,12.80
2023-04-13T13:37:16.198Z,12.80
2023-04-13T13:39:43.404Z,12.90
2023-04-13T13:42:10.639Z,13.00
2023-04-13T13:44:37.986Z,12.90
2023-04-13T13:47:05.681Z,13.00
2023-04-13T13:49:33.088Z,13.00
2023-04-13T13:52:01.112Z,13.00
2023-04-13T13:54:28.388Z,13.00
2023-04-13T13:56:56.209Z,13.00
2023-04-13T13:59:24.770Z,12.90
2023-04-13T14:01:52.070Z,12.70
2023-04-13T14:04:20.570Z,12.60
2023-04-13T14:06:49.768Z,12.40
2023-04-13T14:09:18.945Z,12.40
2023-04-13T14:11:46.257Z,12.20
2023-04-13T14:14:25.198Z,12.10
2023-04-13T14:16:52.484Z,12.00
2023-04-13T14:19:20.842Z,12.00
2023-04-13T14:21:49.426Z,11.90
2023-04-13T14:24:16.672Z,11.80
2023-04-13T14:26:43.946Z,11.80
2023-04-13T14:29:15.730Z,11.80
2023-04-13T14:31:43.079Z,11.80
2023-04-13T14:34:12.986Z,11.90
2023-04-13T14:36:40.305Z,11.90
2023-04-13T14:39:07.764Z,12.00
2023-04-13T14:41:35.012Z,12.00
2023-04-13T14:44:02.209Z,12.00
2023-04-13T14:46:29.497Z,12.00
2023-04-13T14:48:56.716Z,11.90
2023-04-13T14:51:24.137Z,11.70
2023-04-13T14:53:56.286Z,11.70
2023-04-13T14:56:24.010Z,11.70
2023-04-13T14:58:51.971Z,11.70
2023-04-13T15:01:21.959Z,11.60
2023-04-13T15:03:53.971Z,11.60
2023-04-13T15:06:22.498Z,11.50
2023-04-13T15:08:50.069Z,11.50
2023-04-13T15:11:17.390Z,11.40
2023-04-13T15:13:46.156Z,11.40
2023-04-13T15:16:13.745Z,11.40
2023-04-13T15:18:41.223Z,11.50
2023-04-13T15:21:08.530Z,11.50
2023-04-13T15:23:36.607Z,11.50
2023-04-13T15:26:04.552Z,11.50
2023-04-13T15:28:37.739Z,11.50
2023-04-13T15:31:06.223Z,11.50
2023-04-13T15:33:36.389Z,11.50
2023-04-13T15:36:04.018Z,11.30
2023-04-13T15:38:31.427Z,11.20
2023-04-13T15:40:58.775Z,11.20
2023-04-13T15:43:26.177Z,11.20
2023-04-13T15:45:53.394Z,11.20
2023-04-13T15:48:20.764Z,11.10
2023-04-13T15:50:47.938Z,11.10
2023-04-13T15:53:15.753Z,11.00
2023-04-13T15:55:42.970Z,11.10
2023-04-13T15:58:10.225Z,11.10
2023-04-13T16:00:37.464Z,11.10
2023-04-13T16:03:04.833Z,11.10
2023-04-13T16:05:32.362Z,11.10
2023-04-13T16:07:59.566Z,11.00
2023-04-13T16:10:27.211Z,10.90
2023-04-13T16:12:54.959Z,10.90
2023-04-13T16:15:24.200Z,10.90
2023-04-13T16:17:51.786Z,10.80
2023-04-13T16:20:19.872Z,10.80
2023-04-13T16:22:49.527Z,10.80
2023-04-13T16:25:19.310Z,10.80
2023-04-13T16:27:50.848Z,10.80
2023-04-13T16:30:21.222Z,10.80
2023-04-13T16:32:49.996Z,10.70
2023-04-13T16:35:17.502Z,10.70
2023-04-13T16:37:45.243Z,10.70
2023-04-13T16:40:13.762Z,10.60
2023-04-13T16:42:42.457Z,10.60
2023-04-13T16:45:13.747Z,10.60
2023-04-13T16:47:42.194Z,10.60
2023-04-13T16:50:11.526Z,10.60
2023-04-13T16:52:41.304Z,10.60
2023-04-13T16:55:17.714Z,10.50
2023-04-13T16:57:45.308Z,10.50
2023-04-13T17:00:15.576Z,10.50
2023-04-13T17:02:43.316Z,10.50
2023-04-13T17:05:12.644Z,10.50
2023-04-13T17:07:42.959Z,10.40
2023-04-13T17:10:12.944Z,10.40
2023-04-13T17:12:41.105Z,10.30
2023-04-13T17:15:10.077Z,10.30
2023-04-13T17:17:38.522Z,10.30
2023-04-13T17:20:07.314Z,10.30
2023-04-13T17:22:34.635Z,10.20
2023-04-13T17:25:01.890Z,10.20
2023-04-13T17:27:29.205Z,10.20
2023-04-13T17:29:58.080Z,10.20
2023-04-13T17:32:25.367Z,10.10
2023-04-13T17:34:52.731Z,10.10
2023-04-13T17:37:19.998Z,10.10
2023-04-13T17:39:47.862Z,10.10
2023-04-13T17:42:15.391Z,10.00
2023-04-13T17:44:43.817Z,10.10
2023-04-13T17:47:10.962Z,10.10
2023-04-13T17:49:38.780Z,10.10
2023-04-13T17:52:06.252Z,10.00
2023-04-13T17:54:33.494Z,10.00
2023-04-13T17:57:01.948Z,10.00
2023-04-13T17:59:29.170Z,10.00
2023-04-13T18:01:58.989Z,10.00
2023-04-13T18:04:26.684Z,9.90
2023-04-13T18:06:56.515Z,10.00
2023-04-13T18:09:24.957Z,10.00
2023-04-13T18:11:52.136Z,9.90
2023-04-13T18:14:19.383Z,10.00
2023-04-13T18:16:47.582Z,9.90
2023-04-13T18:19:15.200Z,9.90
2023-04-13T18:21:42.479Z,9.90
2023-04-13T18:24:09.767Z,9.90
2023-04-13T18:26:36.980Z,9.90
2023-04-13T18:29:04.326Z,9.90
2023-04-13T18:31:32.305Z,9.90
2023-04-13T18:33:59.896Z,9.90
2023-04-13T18:36:27.654Z,9.90
2023-04-13T18:38:55.173Z,9.80
2023-04-13T18:41:22.505Z,9.80
2023-04-13T18:43:49.738Z,9.80
2023-04-13T18:46:17.086Z,9.80
2023-04-13T18:48:44.333Z,9.80
2023-04-13T18:51:12.454Z,9.80
2023-04-13T18:53:39.745Z,9.80
2023-04-13T18:56:07.050Z,9.80
2023-04-13T18:58:34.299Z,9.80
2023-04-13T19:01:01.529Z,9.80
2023-04-13T19:03:29.388Z,9.80
2023-04-13T19:05:56.705Z,9.80
2023-04-13T19:08:23.931Z,9.80
2023-04-13T19:10:51.982Z,9.70
2023-04-13T19:13:19.205Z,9.70
2023-04-13T19:15:46.874Z,9.70
2023-04-13T19:18:14.167Z,9.60
2023-04-13T19:20:41.418Z,9.60
2023-04-13T19:23:08.823Z,9.60
2023-04-13T19:25:36.158Z,9.60
2023-04-13T19:28:03.609Z,9.50
2023-04-13T19:30:31.192Z,9.50
2023-04-13T19:32:59.219Z,9.60
2023-04-13T19:35:27.202Z,9.50
2023-04-13T19:37:55.190Z,9.50
2023-04-13T19:40:23.285Z,9.50
2023-04-13T19:42:50.616Z,9.50
2023-04-13T19:45:17.857Z,9.50
2023-04-13T19:47:45.983Z,9.50
2023-04-13T19:50:15.331Z,9.50
2023-04-13T19:52:43.087Z,9.50
2023-04-13T19:55:11.027Z,9.50
2023-04-13T19:57:43.098Z,9.50
2023-04-13T20:00:20.562Z,9.50
2023-04-13T20:02:50.232Z,9.40
2023-04-13T20:05:19.809Z,9.40
2023-04-13T20:07:47.199Z,9.40
2023-04-13T20:10:14.598Z,9.40
2023-04-13T20:12:41.898Z,9.40
2023-04-13T20:15:09.531Z,9.40
2023-04-13T20:17:36.892Z,9.40
2023-04-13T20:20:06.496Z,9.40
2023-04-13T20:22:33.907Z,9.40
2023-04-13T20:25:01.126Z,9.40
2023-04-13T20:27:29.840Z,9.40
2023-04-13T20:29:57.134Z,9.40
2023-04-13T20:32:24.364Z,9.40
2023-04-13T20:34:53.258Z,9.40
2023-04-13T20:37:20.503Z,9.40
2023-04-13T20:39:50.623Z,9.40
2023-04-13T20:42:19.984Z,9.40
2023-04-13T20:44:47.864Z,9.40
2023-04-13T20:47:16.856Z,9.40
2023-04-13T20:49:46.943Z,9.30
2023-04-13T20:52:14.410Z,9.30
2023-04-13T20:54:42.553Z,9.30
2023-04-13T20:57:09.936Z,9.20
2023-04-13T20:59:39.943Z,9.20
2023-04-13T21:02:08.008Z,9.20
2023-04-13T21:04:35.919Z,9.20
2023-04-13T21:07:03.952Z,9.20
2023-04-13T21:09:31.197Z,9.20
2023-04-13T21:11:58.654Z,9.30
2023-04-13T21:14:26.175Z,9.30
2023-04-13T21:16:54.714Z,9.20
2023-04-13T21:19:23.130Z,9.20
2023-04-13T21:21:50.257Z,9.20
2023-04-13T21:24:17.538Z,9.20
2023-04-13T21:26:44.766Z,9.20
2023-04-13T21:29:12.018Z,9.10
2023-04-13T21:31:39.249Z,9.10
2023-04-13T21:34:06.566Z,9.10
2023-04-13T21:39:04.273Z,9.00
2023-04-13T21:41:31.514Z,9.00
2023-04-13T21:43:58.761Z,9.00
2023-04-13T21:46:26.145Z,9.00
2023-04-13T21:48:53.385Z,9.00
2023-04-13T21:51:20.561Z,8.90
2023-04-13T21:53:48.327Z,8.90
2023-04-13T21:56:15.587Z,8.80
2023-04-13T21:58:46.014Z,8.90
2023-04-13T22:01:14.618Z,8.80
2023-04-13T22:03:47.026Z,8.80
2023-04-13T22:06:15.110Z,8.80
2023-04-13T22:08:42.515Z,8.80
2023-04-13T22:11:10.040Z,8.80
2023-04-13T22:13:37.513Z,8.80
2023-04-13T22:16:05.166Z,8.80
2023-04-13T22:18:32.467Z,8.90
2023-04-13T22:21:00.333Z,8.90
2023-04-13T22:23:27.717Z,8.90
2023-04-13T22:26:01.645Z,8.90
2023-04-13T22:28:31.086Z,9.00
2023-04-13T22:31:05.104Z,9.00
2023-04-13T22:33:36.007Z,8.90
2023-04-13T22:36:05.467Z,8.90
2023-04-13T22:38:32.984Z,8.90
2023-04-13T22:41:06.961Z,8.90
2023-04-13T22:43:34.369Z,8.90
2023-04-13T22:46:01.692Z,8.90
2023-04-13T22:48:30.088Z,8.90
2023-04-13T22:51:00.813Z,8.90
2023-04-13T22:53:28.387Z,8.90
2023-04-13T22:55:55.807Z,8.90
2023-04-13T22:58:23.359Z,8.80
2023-04-13T23:00:50.809Z,8.90
2023-04-13T23:03:18.348Z,8.90
2023-04-13T23:05:45.989Z,8.80
2023-04-13T23:08:13.757Z,8.80
2023-04-13T23:10:41.262Z,8.70
2023-04-13T23:13:08.504Z,8.70
2023-04-13T23:15:35.933Z,8.80
2023-04-13T23:18:03.265Z,8.80
2023-04-13T23:20:31.065Z,8.70
2023-04-13T23:22:58.322Z,8.70
2023-04-13T23:25:25.660Z,8.70
2023-04-13T23:27:52.815Z,8.70
2023-04-13T23:30:21.280Z,8.70
2023-04-13T23:32:48.439Z,8.70
2023-04-13T23:35:15.953Z,8.70
2023-04-13T23:37:45.341Z,8.70
2023-04-13T23:40:12.841Z,8.70
2023-04-13T23:42:40.572Z,8.70
2023-04-13T23:45:08.922Z,8.80
2023-04-13T23:47:36.183Z,8.80
2023-04-13T23:50:03.921Z,8.90
2023-04-13T23:52:31.088Z,8.80
2023-04-13T23:54:58.325Z,8.80
2023-04-13T23:57:25.760Z,8.80
2023-04-13T23:59:57.470Z,8.80
